Time;durP1;ratioP1;P1;durP2;ratioP2;P2;SDS_P1;SDS_P2;PMS_P1;PMS_P2;Temp;Humidity;BMP_temperature;BMP_pressure;BME280_temperature;BME280_humidity;BME280_pressure;Samples;Min_cycle;Max_cycle;Signal;HPM_P1;HPM_P2
2023/12/28 00:01:13;;;;;;;1.53;1.30;;;9.50;99.90;;;;;;5033256;28;20268;-44
2023/12/28 00:03:49;;;;;;;1.73;1.40;;;9.50;99.90;;;;;;5033865;28;20238;-43
2023/12/28 00:06:15;;;;;;;2.37;1.70;;;9.40;99.90;;;;;;5033021;28;20647;-43
2023/12/28 00:08:41;;;;;;;3.03;1.30;;;9.40;99.90;;;;;;5033134;28;20250;-43
2023/12/28 00:11:08;;;;;;;2.37;1.67;;;9.40;99.90;;;;;;5034041;28;20212;-44
2023/12/28 00:13:37;;;;;;;3.07;1.70;;;9.30;99.90;;;;;;5033863;28;20215;-42
2023/12/28 00:16:07;;;;;;;3.03;1.70;;;9.30;99.90;;;;;;5034565;28;20179;-44
2023/12/28 00:18:33;;;;;;;4.07;1.57;;;9.30;99.90;;;;;;5034766;28;20198;-44
2023/12/28 00:21:00;;;;;;;2.47;1.70;;;9.20;99.90;;;;;;5034647;28;20201;-44
2023/12/28 00:23:27;;;;;;;1.67;1.37;;;9.20;99.90;;;;;;5032079;28;20185;-43
2023/12/28 00:25:54;;;;;;;3.50;1.57;;;9.20;99.90;;;;;;5036995;28;20204;-45
2023/12/28 00:28:23;;;;;;;2.43;1.70;;;9.20;99.90;;;;;;5035701;28;20657;-42
2023/12/28 00:30:54;;;;;;;3.17;1.30;;;9.20;99.90;;;;;;5036815;28;20567;-45
2023/12/28 00:36:45;;;;;;;1.40;1.30;;;9.20;99.90;;;;;;5042000;28;20219;-43
2023/12/28 00:39:12;;;;;;;1.53;1.37;;;9.20;99.90;;;;;;5044564;28;20185;-43
2023/12/28 00:45:09;;;;;;;5.63;1.40;;;9.20;99.90;;;;;;5039737;28;20221;-45
2023/12/28 00:47:37;;;;;;;1.90;1.50;;;9.20;99.90;;;;;;5037767;28;20169;-43
2023/12/28 00:50:04;;;;;;;2.40;1.60;;;9.20;99.90;;;;;;5037076;28;20197;-43
2023/12/28 00:53:03;;;;;;;3.63;1.37;;;9.20;99.90;;;;;;5036809;28;20269;-41
2023/12/28 00:58:54;;;;;;;2.07;1.73;;;9.20;99.90;;;;;;5036791;28;20559;-43
2023/12/28 01:01:19;;;;;;;4.00;1.43;;;9.20;99.90;;;;;;5036747;28;20197;-42
2023/12/28 01:03:45;;;;;;;3.07;1.60;;;9.30;99.90;;;;;;5036795;28;20185;-42
2023/12/28 01:06:14;;;;;;;2.60;1.50;;;9.30;99.90;;;;;;5036475;28;20194;-42
2023/12/28 01:08:42;;;;;;;3.57;1.70;;;9.30;99.90;;;;;;5036557;28;20181;-42
2023/12/28 01:11:08;;;;;;;1.93;1.70;;;9.30;99.90;;;;;;5035569;28;20621;-43
2023/12/28 01:13:35;;;;;;;3.90;1.83;;;9.40;99.90;;;;;;5036205;28;20316;-43
2023/12/28 01:16:01;;;;;;;4.73;2.00;;;9.40;99.90;;;;;;5036192;28;20193;-43
2023/12/28 01:21:49;;;;;;;3.00;1.70;;;9.40;99.90;;;;;;5036157;28;20172;-43
2023/12/28 01:24:17;;;;;;;2.17;1.47;;;9.40;99.90;;;;;;5034953;28;20278;-42
2023/12/28 01:26:43;;;;;;;2.93;1.77;;;9.40;99.90;;;;;;5030215;28;20214;-43
2023/12/28 01:29:08;;;;;;;1.73;1.53;;;9.40;99.90;;;;;;5034966;28;20200;-44
2023/12/28 01:35:11;;;;;;;1.97;1.53;;;9.40;99.90;;;;;;5035713;28;20687;-42
2023/12/28 01:37:37;;;;;;;2.03;1.67;;;9.40;99.90;;;;;;5035600;28;20564;-42
2023/12/28 01:40:05;;;;;;;5.07;2.00;;;9.40;99.90;;;;;;5035715;28;20260;-43
2023/12/28 01:43:04;;;;;;;3.07;1.83;;;9.40;99.90;;;;;;5036033;28;20190;-43
2023/12/28 01:45:30;;;;;;;3.10;1.80;;;9.40;99.90;;;;;;5035706;28;20539;-43
2023/12/28 01:48:05;;;;;;;2.77;1.97;;;9.40;99.90;;;;;;5035819;28;20230;-44
2023/12/28 01:50:34;;;;;;;5.33;2.10;;;9.40;99.90;;;;;;5035380;28;20200;-43
2023/12/28 01:53:02;;;;;;;2.40;1.93;;;9.40;99.90;;;;;;5035533;28;20657;-42
2023/12/28 01:55:31;;;;;;;2.10;1.73;;;9.40;99.90;;;;;;5035305;28;20226;-41
2023/12/28 01:57:58;;;;;;;3.83;1.83;;;9.40;99.90;;;;;;5035364;28;20353;-44
2023/12/28 02:00:27;;;;;;;2.50;2.00;;;9.40;99.90;;;;;;5034060;28;20560;-44
2023/12/28 02:03:17;;;;;;;5.10;2.40;;;9.40;99.90;;;;;;5035305;28;20683;-44
2023/12/28 02:05:45;;;;;;;5.80;2.40;;;9.50;99.90;;;;;;5034979;28;20212;-42
2023/12/28 02:08:11;;;;;;;2.30;1.67;;;9.40;99.90;;;;;;5034988;28;20190;-45
2023/12/28 02:10:39;;;;;;;3.60;2.00;;;9.40;99.90;;;;;;5039730;28;20336;-43
2023/12/28 02:13:11;;;;;;;3.93;2.17;;;9.40;99.90;;;;;;5055119;28;20222;-43
2023/12/28 02:15:52;;;;;;;3.43;2.27;;;9.40;99.90;;;;;;5054363;28;20232;-44
2023/12/28 02:18:24;;;;;;;4.17;2.23;;;9.40;99.90;;;;;;5054835;28;20258;-43
2023/12/28 02:20:50;;;;;;;4.00;2.40;;;9.40;99.90;;;;;;5053666;28;20207;-42
2023/12/28 02:23:17;;;;;;;5.03;2.03;;;9.40;99.90;;;;;;5054903;28;20184;-45
2023/12/28 02:25:42;;;;;;;4.17;2.10;;;9.40;99.90;;;;;;5054774;28;20177;-45
2023/12/28 02:28:08;;;;;;;2.93;1.90;;;9.40;99.90;;;;;;5054622;28;20264;-43
2023/12/28 02:30:34;;;;;;;4.23;2.00;;;9.30;99.90;;;;;;5053273;28;20223;-44
2023/12/28 02:33:27;;;;;;;4.40;1.97;;;9.30;99.90;;;;;;5054450;28;20193;-44
2023/12/28 02:36:08;;;;;;;2.80;2.00;;;9.30;99.90;;;;;;5054765;28;20164;-43
2023/12/28 02:38:39;;;;;;;3.03;2.10;;;9.30;99.90;;;;;;5053322;28;20181;-43
2023/12/28 02:41:38;;;;;;;4.20;2.00;;;9.30;99.90;;;;;;5052682;28;20232;-44
2023/12/28 02:44:06;;;;;;;3.50;2.07;;;9.30;99.90;;;;;;5054324;28;20184;-44
2023/12/28 02:46:32;;;;;;;3.70;1.97;;;9.30;99.90;;;;;;5054807;28;20195;-41
2023/12/28 02:48:59;;;;;;;5.90;2.37;;;9.30;99.90;;;;;;5054360;28;20190;-44
2023/12/28 02:51:27;;;;;;;4.23;2.30;;;9.30;99.90;;;;;;5053009;28;20200;-44
2023/12/28 02:54:19;;;;;;;4.07;2.20;;;9.20;99.90;;;;;;5052919;28;20234;-42
2023/12/28 02:56:47;;;;;;;2.67;2.10;;;9.20;99.90;;;;;;5054116;28;20176;-42
2023/12/28 02:59:16;;;;;;;4.23;2.40;;;9.20;99.90;;;;;;5052806;28;20548;-41
2023/12/28 03:01:45;;;;;;;5.77;2.33;;;9.20;99.90;;;;;;5052640;28;20208;-43
2023/12/28 03:04:12;;;;;;;5.30;1.93;;;9.20;99.90;;;;;;5053977;28;20192;-43
2023/12/28 03:10:02;;;;;;;6.67;2.20;;;9.20;99.90;;;;;;5053769;28;20201;-43
2023/12/28 03:12:32;;;;;;;3.70;1.70;;;9.20;99.90;;;;;;5052852;28;20245;-42
2023/12/28 03:14:59;;;;;;;3.90;2.20;;;9.20;99.90;;;;;;5054131;28;20615;-41
2023/12/28 03:17:25;;;;;;;2.17;1.90;;;9.20;99.90;;;;;;5053819;28;20185;-44
2023/12/28 03:19:51;;;;;;;6.00;2.20;;;9.20;99.90;;;;;;5053963;28;20204;-42
2023/12/28 03:22:19;;;;;;;3.63;2.03;;;9.10;99.90;;;;;;5053686;28;20277;-44
2023/12/28 03:24:49;;;;;;;4.97;2.43;;;9.20;99.90;;;;;;5053621;28;20250;-43
2023/12/28 03:30:40;;;;;;;3.00;1.87;;;9.20;99.90;;;;;;5053462;28;20228;-42
2023/12/28 03:33:07;;;;;;;5.83;2.10;;;9.20;99.90;;;;;;5053754;28;20668;-43
2023/12/28 03:35:34;;;;;;;3.10;1.87;;;9.20;99.90;;;;;;5052214;28;20257;-44
2023/12/28 03:38:01;;;;;;;4.10;1.80;;;9.20;99.90;;;;;;5053372;28;20273;-43
2023/12/28 03:40:27;;;;;;;6.80;2.23;;;9.20;99.90;;;;;;5053356;28;20297;-41
2023/12/28 03:42:55;;;;;;;4.00;2.10;;;9.20;99.90;;;;;;5053367;28;20213;-43
2023/12/28 03:45:21;;;;;;;4.77;2.30;;;9.20;99.90;;;;;;5053651;28;20208;-44
2023/12/28 03:47:51;;;;;;;6.93;2.37;;;9.20;99.90;;;;;;5053391;28;20668;-44
2023/12/28 03:50:17;;;;;;;5.10;1.90;;;9.20;99.90;;;;;;5053130;28;20266;-43
2023/12/28 03:52:43;;;;;;;4.67;1.90;;;9.20;99.90;;;;;;5053457;28;20251;-44
2023/12/28 03:55:15;;;;;;;3.47;2.20;;;9.10;99.90;;;;;;5053277;28;20671;-44
2023/12/28 03:57:46;;;;;;;5.17;2.20;;;9.20;99.90;;;;;;5053294;28;20219;-42
2023/12/28 04:00:16;;;;;;;5.13;2.07;;;9.20;99.90;;;;;;5058812;28;20224;-44
2023/12/28 04:03:38;;;;;;;3.23;2.00;;;9.10;99.90;;;;;;5057045;28;20224;-45
2023/12/28 04:06:04;;;;;;;4.30;2.17;;;9.20;99.90;;;;;;5060089;28;20180;-43
2023/12/28 04:08:29;;;;;;;2.47;1.60;;;9.20;99.90;;;;;;5058747;28;20230;-45
2023/12/28 04:10:55;;;;;;;6.03;2.00;;;9.20;99.90;;;;;;5059699;28;20239;-42
2023/12/28 04:13:21;;;;;;;4.00;1.77;;;9.20;99.90;;;;;;5058912;28;20201;-43
2023/12/28 04:15:59;;;;;;;6.47;2.00;;;9.20;99.90;;;;;;5059877;28;20186;-44
2023/12/28 04:18:24;;;;;;;4.43;2.17;;;9.30;99.90;;;;;;5060128;28;20176;-42
2023/12/28 04:20:51;;;;;;;2.73;1.43;;;9.20;99.90;;;;;;5059815;28;20201;-44
2023/12/28 04:23:17;;;;;;;4.40;2.00;;;9.20;99.90;;;;;;5059914;28;20541;-46
2023/12/28 04:25:43;;;;;;;5.10;1.80;;;9.20;99.90;;;;;;5059651;28;20265;-44
2023/12/28 04:28:19;;;;;;;2.47;1.40;;;9.20;99.90;;;;;;5059757;28;20231;-43
2023/12/28 04:30:50;;;;;;;2.53;1.57;;;9.20;99.90;;;;;;5059637;28;20270;-43
2023/12/28 04:33:19;;;;;;;3.20;2.03;;;9.20;99.90;;;;;;5059911;28;20206;-43
2023/12/28 04:35:45;;;;;;;3.47;1.90;;;9.20;99.90;;;;;;5059813;28;20203;-42
2023/12/28 04:38:23;;;;;;;4.37;2.17;;;9.20;99.90;;;;;;5052373;28;20260;-42
2023/12/28 04:40:55;;;;;;;4.23;2.17;;;9.20;99.90;;;;;;5069253;28;20203;-44
2023/12/28 04:43:23;;;;;;;3.53;1.70;;;9.20;99.90;;;;;;5067785;28;20183;-43
2023/12/28 04:45:52;;;;;;;4.73;1.77;;;9.20;99.90;;;;;;5063136;28;20255;-43
2023/12/28 04:48:20;;;;;;;2.40;1.70;;;9.20;99.90;;;;;;5059210;28;20186;-43
2023/12/28 04:50:48;;;;;;;4.10;2.00;;;9.10;99.90;;;;;;5059949;28;20199;-44
2023/12/28 04:53:23;;;;;;;4.57;2.40;;;9.10;99.90;;;;;;5060327;28;20275;-43
2023/12/28 04:55:48;;;;;;;4.53;2.10;;;9.10;99.90;;;;;;5059673;28;20231;-44
2023/12/28 04:58:17;;;;;;;2.53;1.70;;;9.10;99.90;;;;;;5059781;28;20177;-45
2023/12/28 05:00:43;;;;;;;3.00;1.60;;;9.10;99.90;;;;;;5060655;28;20757;-43
2023/12/28 05:03:10;;;;;;;11.80;2.13;;;9.10;99.90;;;;;;5060489;28;20199;-44
2023/12/28 05:05:35;;;;;;;4.03;1.93;;;9.10;99.90;;;;;;5060734;28;20177;-42
2023/12/28 05:08:06;;;;;;;4.93;2.00;;;9.20;99.90;;;;;;5062012;28;20193;-44
2023/12/28 05:10:32;;;;;;;5.50;1.90;;;9.20;99.90;;;;;;5057430;28;20209;-47
2023/12/28 05:12:58;;;;;;;8.80;2.30;;;9.20;99.90;;;;;;5056221;28;20202;-47
2023/12/28 05:15:25;;;;;;;3.27;1.80;;;9.20;99.90;;;;;;5055244;28;20180;-46
2023/12/28 05:17:51;;;;;;;4.57;2.10;;;9.20;99.90;;;;;;5056499;28;20265;-47
2023/12/28 05:20:26;;;;;;;3.73;2.00;;;9.30;99.90;;;;;;5056283;28;20648;-46
2023/12/28 05:22:51;;;;;;;3.67;1.83;;;9.30;99.90;;;;;;5056083;28;20168;-47
2023/12/28 05:25:17;;;;;;;4.67;1.83;;;9.30;99.90;;;;;;5056035;28;20195;-46
2023/12/28 05:27:46;;;;;;;3.97;1.93;;;9.40;99.90;;;;;;5055992;28;20259;-46
2023/12/28 05:30:12;;;;;;;9.50;2.30;;;9.40;99.90;;;;;;5055799;28;20569;-47
2023/12/28 05:32:37;;;;;;;5.13;2.00;;;9.40;99.90;;;;;;5055560;28;20230;-47
2023/12/28 05:35:08;;;;;;;6.30;2.30;;;9.40;99.90;;;;;;5055167;28;20183;-47
2023/12/28 05:41:42;;;;;;;5.27;2.20;;;9.40;99.90;;;;;;5055757;28;20195;-47
2023/12/28 05:44:09;;;;;;;5.23;1.77;;;9.40;99.90;;;;;;5055716;28;20176;-45
2023/12/28 05:46:36;;;;;;;3.83;1.47;;;9.40;99.90;;;;;;5054567;28;20187;-47
2023/12/28 05:49:02;;;;;;;4.77;1.73;;;9.40;99.90;;;;;;5055725;28;20174;-46
2023/12/28 05:51:40;;;;;;;3.10;1.53;;;9.40;99.90;;;;;;5059156;28;20229;-46
2023/12/28 05:54:10;;;;;;;7.67;1.83;;;9.40;99.90;;;;;;5063268;28;20214;-47
2023/12/28 05:56:36;;;;;;;2.57;1.77;;;9.50;99.90;;;;;;5064144;28;20178;-46
2023/12/28 05:59:02;;;;;;;5.80;2.00;;;9.50;99.90;;;;;;5062700;28;20175;-46
2023/12/28 06:01:27;;;;;;;4.40;1.83;;;9.50;99.90;;;;;;5061411;28;20240;-46
2023/12/28 06:03:53;;;;;;;4.17;1.60;;;9.50;99.90;;;;;;5063921;28;20179;-47
2023/12/28 06:06:22;;;;;;;6.33;2.63;;;9.50;99.90;;;;;;5057165;28;20589;-47
2023/12/28 06:08:49;;;;;;;2.77;1.77;;;9.50;99.90;;;;;;5055135;28;20549;-45
2023/12/28 06:11:15;;;;;;;5.63;2.00;;;9.50;99.90;;;;;;5053874;28;20587;-46
2023/12/28 06:13:41;;;;;;;3.33;1.53;;;9.50;99.90;;;;;;5052190;28;20216;-46
2023/12/28 06:16:09;;;;;;;3.33;1.60;;;9.50;99.90;;;;;;5055231;28;20182;-45
2023/12/28 06:18:42;;;;;;;4.50;2.00;;;9.50;99.90;;;;;;5054820;28;20669;-46
2023/12/28 06:21:09;;;;;;;7.77;3.00;;;9.50;99.90;;;;;;5055072;28;20254;-46
2023/12/28 06:23:35;;;;;;;5.60;2.20;;;9.50;99.90;;;;;;5054738;28;20187;-47
2023/12/28 06:26:07;;;;;;;5.90;1.67;;;9.50;99.90;;;;;;5054701;28;20184;-46
2023/12/28 06:28:39;;;;;;;5.57;1.80;;;9.60;99.90;;;;;;5054730;28;20546;-47
2023/12/28 06:31:18;;;;;;;3.37;1.70;;;9.50;99.90;;;;;;5037404;28;20230;-47
2023/12/28 06:33:44;;;;;;;9.67;1.60;;;9.50;99.90;;;;;;5054570;28;20196;-47
2023/12/28 06:36:13;;;;;;;7.37;1.90;;;9.50;99.90;;;;;;5053649;28;20161;-46
2023/12/28 06:38:38;;;;;;;3.00;1.80;;;9.40;99.90;;;;;;5053540;28;20326;-48
2023/12/28 06:41:12;;;;;;;3.13;1.63;;;9.30;99.90;;;;;;5054736;28;20314;-48
2023/12/28 06:43:44;;;;;;;9.47;2.00;;;9.30;99.90;;;;;;5054206;28;20193;-46
2023/12/28 06:46:11;;;;;;;8.50;1.80;;;9.20;99.90;;;;;;5054304;28;20237;-46
2023/12/28 06:48:40;;;;;;;6.03;1.90;;;9.20;99.90;;;;;;5054539;28;20271;-47
2023/12/28 06:51:07;;;;;;;4.33;1.60;;;9.20;99.90;;;;;;5054211;28;20200;-47
2023/12/28 06:53:36;;;;;;;6.20;1.73;;;9.20;99.90;;;;;;5054582;28;20204;-45
2023/12/28 06:56:05;;;;;;;9.63;1.60;;;9.20;99.90;;;;;;5054227;28;20174;-46
2023/12/28 06:58:30;;;;;;;2.57;1.63;;;9.20;99.90;;;;;;5054473;28;20541;-45
2023/12/28 07:00:57;;;;;;;6.47;1.63;;;9.30;99.90;;;;;;5053983;28;20198;-46
2023/12/28 07:03:25;;;;;;;7.00;1.80;;;9.30;99.90;;;;;;5054032;28;20173;-47
2023/12/28 07:05:51;;;;;;;6.97;1.97;;;9.30;99.90;;;;;;5053515;28;20196;-47
2023/12/28 07:08:21;;;;;;;4.17;1.60;;;9.30;99.90;;;;;;5053526;28;20707;-46
2023/12/28 07:10:50;;;;;;;7.90;2.13;;;9.30;99.90;;;;;;5054189;28;20211;-47
2023/12/28 07:13:15;;;;;;;10.97;2.63;;;9.30;99.90;;;;;;5052510;28;20213;-46
2023/12/28 07:15:42;;;;;;;8.07;2.03;;;9.30;99.90;;;;;;5052719;28;20181;-47
2023/12/28 07:18:08;;;;;;;6.27;1.60;;;9.30;99.90;;;;;;5054143;28;20225;-48
2023/12/28 07:20:34;;;;;;;8.37;1.80;;;9.30;99.90;;;;;;5053893;28;20271;-48
2023/12/28 07:22:59;;;;;;;8.50;2.30;;;9.30;99.90;;;;;;5054055;28;20190;-47
2023/12/28 07:25:31;;;;;;;3.00;1.73;;;9.30;99.90;;;;;;5053636;28;20178;-47
2023/12/28 07:27:58;;;;;;;9.07;1.93;;;9.30;99.90;;;;;;5053676;28;20187;-45
2023/12/28 07:30:24;;;;;;;7.63;1.87;;;9.40;99.90;;;;;;5052348;28;20684;-49
2023/12/28 07:32:50;;;;;;;9.50;2.43;;;9.30;99.90;;;;;;5053680;28;20220;-48
2023/12/28 07:35:16;;;;;;;4.23;1.83;;;9.40;99.90;;;;;;5052288;28;20197;-42
2023/12/28 07:37:41;;;;;;;6.93;1.67;;;9.30;99.90;;;;;;5053514;28;20544;-42
2023/12/28 07:40:09;;;;;;;5.87;1.33;;;9.30;99.90;;;;;;5053533;28;20207;-43
2023/12/28 07:42:34;;;;;;;6.30;1.30;;;9.30;99.90;;;;;;5052230;28;20189;-44
2023/12/28 07:45:01;;;;;;;3.20;1.50;;;9.40;99.90;;;;;;5053447;28;20176;-43
2023/12/28 07:47:27;;;;;;;3.63;1.90;;;9.40;99.90;;;;;;5053426;28;20185;-42
2023/12/28 07:49:52;;;;;;;8.90;1.80;;;9.40;99.90;;;;;;5053409;28;20204;-42
2023/12/28 07:52:18;;;;;;;9.03;2.00;;;9.40;99.90;;;;;;5053234;28;20177;-43
2023/12/28 07:54:47;;;;;;;7.40;1.63;;;9.40;99.90;;;;;;5053503;28;20630;-42
2023/12/28 07:57:12;;;;;;;6.67;1.67;;;9.40;99.90;;;;;;5053883;28;20189;-42
2023/12/28 07:59:40;;;;;;;6.40;2.17;;;9.40;99.90;;;;;;5052193;28;20235;-43
2023/12/28 08:02:08;;;;;;;10.27;1.77;;;9.40;99.90;;;;;;5053372;28;20173;-43
2023/12/28 08:04:33;;;;;;;6.27;2.03;;;9.40;99.90;;;;;;5050530;28;20189;-43
2023/12/28 08:07:08;;;;;;;4.70;1.60;;;9.40;99.90;;;;;;5053194;28;20173;-42
2023/12/28 08:09:35;;;;;;;8.00;1.80;;;9.40;99.90;;;;;;5053610;28;20547;-43
2023/12/28 08:12:02;;;;;;;10.27;1.90;;;9.40;99.90;;;;;;5052052;28;20188;-44
2023/12/28 08:14:27;;;;;;;6.40;1.87;;;9.40;99.90;;;;;;5053281;28;20216;-44
2023/12/28 08:16:53;;;;;;;4.80;1.83;;;9.40;99.90;;;;;;5053420;28;20225;-43
2023/12/28 08:19:19;;;;;;;6.77;2.20;;;9.40;99.90;;;;;;5051858;28;20172;-44
2023/12/28 08:21:48;;;;;;;8.33;1.73;;;9.40;99.90;;;;;;5053088;28;20641;-43
2023/12/28 08:27:38;;;;;;;6.20;1.70;;;9.40;99.90;;;;;;5053145;28;20196;-42
2023/12/28 08:30:09;;;;;;;7.20;1.97;;;9.30;99.90;;;;;;5053497;28;20603;-43
2023/12/28 08:32:38;;;;;;;5.20;1.93;;;9.30;99.90;;;;;;5050486;28;20271;-43
2023/12/28 08:35:04;;;;;;;6.67;1.50;;;9.20;99.90;;;;;;5052923;28;20200;-43
2023/12/28 08:37:31;;;;;;;6.50;1.97;;;9.20;99.90;;;;;;5053479;28;20177;-44
2023/12/28 08:40:03;;;;;;;8.17;2.00;;;9.20;99.90;;;;;;5052858;28;20197;-42
2023/12/28 08:42:29;;;;;;;8.27;2.07;;;9.10;99.90;;;;;;5053252;28;20162;-42
2023/12/28 08:44:59;;;;;;;8.67;1.90;;;9.20;99.90;;;;;;5057451;28;20180;-43
2023/12/28 08:47:26;;;;;;;9.80;2.27;;;9.20;99.90;;;;;;5063685;28;20182;-43
2023/12/28 08:49:55;;;;;;;11.13;2.20;;;9.20;99.90;;;;;;5062135;28;20552;-44
2023/12/28 08:52:20;;;;;;;13.37;1.83;;;9.20;99.90;;;;;;5060771;28;20184;-44
2023/12/28 08:54:51;;;;;;;8.93;1.70;;;9.20;99.90;;;;;;5057392;28;20178;-43
2023/12/28 08:57:16;;;;;;;7.77;1.97;;;9.20;99.90;;;;;;5057288;28;20165;-43
2023/12/28 08:59:42;;;;;;;8.83;1.97;;;9.30;99.90;;;;;;5056695;28;20195;-42
2023/12/28 09:02:11;;;;;;;9.33;2.10;;;9.30;99.90;;;;;;5056826;28;20176;-43
2023/12/28 09:04:38;;;;;;;11.40;1.87;;;9.30;99.90;;;;;;5056905;28;20543;-42
2023/12/28 09:07:04;;;;;;;6.10;1.77;;;9.30;99.90;;;;;;5051066;28;20281;-43
2023/12/28 09:09:32;;;;;;;7.07;2.33;;;9.40;99.90;;;;;;5056086;28;20232;-42
2023/12/28 09:12:00;;;;;;;7.23;1.70;;;9.40;99.90;;;;;;5056422;28;20275;-42
2023/12/28 09:14:26;;;;;;;7.40;2.07;;;9.40;99.90;;;;;;5056190;28;20253;-43
2023/12/28 09:16:51;;;;;;;7.63;2.17;;;9.50;99.90;;;;;;5056339;28;20183;-44
2023/12/28 09:19:17;;;;;;;13.03;2.50;;;9.50;99.90;;;;;;5056577;28;20169;-41
2023/12/28 09:21:43;;;;;;;9.77;1.80;;;9.50;99.90;;;;;;5056415;28;20177;-42
2023/12/28 09:24:15;;;;;;;12.07;1.90;;;9.60;99.90;;;;;;5056121;28;20258;-42
2023/12/28 09:26:41;;;;;;;8.90;2.00;;;9.60;99.90;;;;;;5055241;28;20196;-43
2023/12/28 09:29:06;;;;;;;10.40;1.97;;;9.70;99.90;;;;;;5056303;28;20187;-42
2023/12/28 09:31:32;;;;;;;9.07;1.80;;;9.70;99.90;;;;;;5056186;28;20252;-43
2023/12/28 09:33:59;;;;;;;9.23;1.80;;;9.70;99.90;;;;;;5055796;28;20706;-43
2023/12/28 09:36:25;;;;;;;6.23;1.57;;;9.90;99.90;;;;;;5056279;28;20160;-41
2023/12/28 09:39:03;;;;;;;10.10;2.27;;;10.00;99.90;;;;;;5056318;28;20169;-43
2023/12/28 09:41:34;;;;;;;6.30;1.83;;;10.00;99.90;;;;;;5047109;28;20265;-45
2023/12/28 09:44:16;;;;;;;3.40;1.40;;;10.10;99.90;;;;;;5054787;28;20674;-42
2023/12/28 09:46:46;;;;;;;11.07;1.67;;;10.20;99.90;;;;;;5054488;28;20172;-42
2023/12/28 09:49:18;;;;;;;6.47;1.67;;;10.30;99.90;;;;;;5055370;28;20193;-44
2023/12/28 09:51:47;;;;;;;12.53;2.40;;;10.40;99.90;;;;;;5055712;28;20188;-44
2023/12/28 09:54:13;;;;;;;10.17;1.93;;;10.40;99.90;;;;;;5055443;28;20226;-43
2023/12/28 09:57:25;;;;;;;6.83;1.40;;;10.40;99.90;;;;;;5054948;28;20647;-46
2023/12/28 10:00:19;;;;;;;12.57;2.17;;;10.50;99.90;;;;;;5055784;28;20235;-43
2023/12/28 10:02:46;;;;;;;12.70;2.03;;;10.50;99.90;;;;;;5055795;28;20199;-42
2023/12/28 10:05:16;;;;;;;5.47;1.70;;;10.50;99.90;;;;;;5055713;28;20176;-43
2023/12/28 10:07:43;;;;;;;8.83;2.17;;;10.60;99.90;;;;;;5055066;28;20172;-42
2023/12/28 10:10:09;;;;;;;6.13;1.80;;;10.60;99.90;;;;;;5055020;28;20545;-42
2023/12/28 10:12:36;;;;;;;5.93;1.37;;;10.50;99.90;;;;;;5055236;28;20270;-42
2023/12/28 10:15:02;;;;;;;7.87;1.57;;;10.60;99.90;;;;;;5054792;28;20179;-42
2023/12/28 10:17:28;;;;;;;7.73;1.97;;;10.60;99.90;;;;;;5052571;28;20189;-43
2023/12/28 10:19:55;;;;;;;6.27;1.33;;;10.70;99.90;;;;;;5055342;28;20342;-43
2023/12/28 10:22:24;;;;;;;3.57;1.13;;;10.70;99.90;;;;;;5054433;28;20193;-44
2023/12/28 10:24:53;;;;;;;9.83;1.60;;;10.70;99.90;;;;;;5054758;28;20625;-41
2023/12/28 10:30:41;;;;;;;4.00;1.33;;;10.80;99.90;;;;;;5054518;28;20254;-45
2023/12/28 10:33:13;;;;;;;8.30;2.07;;;10.90;99.90;;;;;;5054421;28;20631;-45
2023/12/28 10:35:40;;;;;;;8.53;2.00;;;10.90;99.90;;;;;;5054525;28;20615;-42
2023/12/28 10:38:08;;;;;;;6.80;1.77;;;11.00;99.90;;;;;;5053425;28;20587;-43
2023/12/28 10:40:36;;;;;;;6.60;1.90;;;11.00;99.90;;;;;;5053798;28;20590;-45
2023/12/28 10:43:06;;;;;;;7.33;1.63;;;11.00;99.90;;;;;;5055004;28;20175;-44
2023/12/28 10:45:39;;;;;;;9.93;2.43;;;11.10;99.90;;;;;;5054310;28;20180;-43
2023/12/28 10:51:29;;;;;;;10.30;1.93;;;11.10;99.90;;;;;;5054181;28;20272;-43
2023/12/28 10:54:32;;;;;;;10.23;1.90;;;11.10;99.90;;;;;;5052076;28;20223;-44
2023/12/28 10:57:30;;;;;;;5.83;1.43;;;11.10;99.90;;;;;;5054426;28;20254;-43
2023/12/28 11:00:13;;;;;;;9.77;1.77;;;11.20;99.90;;;;;;5050209;28;20227;-43
2023/12/28 11:02:51;;;;;;;4.47;1.53;;;11.20;99.90;;;;;;5053170;28;20274;-42
2023/12/28 11:08:44;;;;;;;7.50;1.37;;;11.20;99.90;;;;;;5053084;28;20170;-44
2023/12/28 11:11:15;;;;;;;10.67;2.07;;;11.30;99.90;;;;;;5052701;28;20207;-43
2023/12/28 11:13:41;;;;;;;6.77;1.43;;;11.30;99.90;;;;;;5053711;28;20203;-44
2023/12/28 11:16:14;;;;;;;9.60;2.00;;;11.30;99.90;;;;;;5053840;28;20176;-46
2023/12/28 11:18:55;;;;;;;9.20;2.33;;;11.30;99.90;;;;;;5054127;28;20171;-44
2023/12/28 11:21:28;;;;;;;16.90;2.30;;;11.30;99.90;;;;;;5053663;28;20192;-43
2023/12/28 11:23:54;;;;;;;8.63;2.27;;;11.30;99.90;;;;;;5052584;28;20173;-45
2023/12/28 11:26:21;;;;;;;4.33;1.30;;;11.40;99.90;;;;;;5053936;28;20591;-43
2023/12/28 11:28:50;;;;;;;8.50;2.03;;;11.30;99.90;;;;;;5053432;28;20683;-42
2023/12/28 11:31:22;;;;;;;9.27;1.83;;;11.40;99.90;;;;;;5053579;28;20680;-45
2023/12/28 11:37:20;;;;;;;13.70;2.57;;;11.50;99.90;;;;;;5054109;28;20271;-45
2023/12/28 11:39:55;;;;;;;10.70;2.30;;;11.50;99.90;;;;;;5051818;28;20283;-43
2023/12/28 11:42:22;;;;;;;14.33;2.23;;;11.60;99.90;;;;;;5054187;28;20379;-44
2023/12/28 11:45:01;;;;;;;6.07;2.40;;;11.60;99.90;;;;;;5055198;28;20604;-43
2023/12/28 11:47:29;;;;;;;8.13;1.63;;;11.70;99.90;;;;;;5055800;28;20199;-46
2023/12/28 11:50:06;;;;;;;5.73;1.60;;;11.70;99.90;;;;;;5053504;28;20204;-44
2023/12/28 11:52:38;;;;;;;11.70;2.10;;;11.80;99.90;;;;;;5040721;28;20653;-45
2023/12/28 11:58:27;;;;;;;12.60;2.00;;;11.80;99.90;;;;;;5053370;28;20207;-46
2023/12/28 12:00:54;;;;;;;13.57;2.20;;;11.80;99.90;;;;;;5052783;28;20288;-43
2023/12/28 12:03:20;;;;;;;10.10;1.83;;;11.80;99.90;;;;;;5051792;28;20249;-44
2023/12/28 12:05:47;;;;;;;14.37;2.13;;;11.80;99.90;;;;;;5053141;28;20176;-44
2023/12/28 12:08:14;;;;;;;4.80;1.60;;;11.80;99.90;;;;;;5053140;28;20691;-42
2023/12/28 12:10:41;;;;;;;9.40;2.10;;;11.80;99.90;;;;;;5033405;28;20715;-45
2023/12/28 12:13:10;;;;;;;4.10;0.90;;;11.90;99.90;;;;;;5024008;28;20744;-44
2023/12/28 12:15:37;;;;;;;9.00;1.57;;;11.90;99.90;;;;;;5025592;28;20192;-43
2023/12/28 12:18:04;;;;;;;6.87;1.87;;;11.90;99.90;;;;;;5012614;28;20531;-44
2023/12/28 13:09:06;;;;;;;9.80;1.73;;;11.80;99.90;;;;;;5018176;28;20217;-48
2023/12/28 13:11:34;;;;;;;5.43;1.60;;;11.80;99.90;;;;;;5009726;28;20220;-45
2023/12/28 13:14:00;;;;;;;7.37;1.50;;;11.80;99.90;;;;;;5016480;28;20579;-44
2023/12/28 13:16:27;;;;;;;7.67;1.50;;;11.70;99.90;;;;;;5017802;28;20193;-43
2023/12/28 13:18:53;;;;;;;3.37;1.50;;;11.80;99.90;;;;;;5016897;28;20188;-43
2023/12/28 13:21:19;;;;;;;3.43;1.30;;;11.70;99.90;;;;;;5000253;28;20209;-45
2023/12/28 13:23:44;;;;;;;5.33;1.60;;;11.70;99.90;;;;;;5017023;28;20189;-45
2023/12/28 13:26:10;;;;;;;10.23;1.80;;;11.70;99.90;;;;;;5016577;28;20596;-45
2023/12/28 13:28:35;;;;;;;7.17;1.50;;;11.70;99.90;;;;;;5016480;28;20178;-46
2023/12/28 13:31:01;;;;;;;5.23;1.57;;;11.70;99.90;;;;;;5015975;28;20209;-44
2023/12/28 13:36:50;;;;;;;4.60;1.27;;;11.70;99.90;;;;;;5016223;28;20165;-43
2023/12/28 13:39:19;;;;;;;6.40;1.27;;;11.70;99.90;;;;;;4998734;28;20570;-44
2023/12/28 13:41:46;;;;;;;5.60;1.40;;;11.70;99.90;;;;;;5010883;28;20213;-44
2023/12/28 13:44:12;;;;;;;10.83;1.70;;;11.60;99.90;;;;;;5016049;28;20236;-43
2023/12/28 13:46:39;;;;;;;10.63;1.80;;;11.60;99.90;;;;;;5016032;28;20193;-45
2023/12/28 13:49:14;;;;;;;10.20;1.60;;;11.50;99.90;;;;;;5015908;28;20170;-43
2023/12/28 13:51:40;;;;;;;6.53;1.93;;;11.60;99.90;;;;;;5016002;28;20196;-43
2023/12/28 13:54:07;;;;;;;7.90;1.63;;;11.50;99.90;;;;;;5015837;28;20239;-42
2023/12/28 15:49:57;;;;;;;6.57;1.90;;;10.20;99.90;;;;;;5013456;28;20228;-44
2023/12/28 15:52:23;;;;;;;6.70;2.70;;;10.10;99.90;;;;;;5013875;28;20192;-44
2023/12/28 15:54:48;;;;;;;6.00;1.70;;;10.10;99.90;;;;;;5013013;28;20616;-42
2023/12/28 15:57:17;;;;;;;3.93;1.40;;;10.10;99.90;;;;;;5013609;28;20257;-44
2023/12/28 15:59:44;;;;;;;9.70;1.73;;;10.10;99.90;;;;;;5013565;28;20201;-45
2023/12/28 16:02:09;;;;;;;10.33;1.73;;;10.10;99.90;;;;;;5014292;28;20268;-48
2023/12/28 16:04:39;;;;;;;7.07;1.70;;;10.10;99.90;;;;;;5013801;28;20682;-49
2023/12/28 16:07:09;;;;;;;7.50;1.53;;;10.10;99.90;;;;;;5013719;28;20587;-48
2023/12/28 16:09:36;;;;;;;6.07;1.73;;;10.00;99.90;;;;;;5013534;28;20264;-47
2023/12/28 16:12:08;;;;;;;10.20;3.30;;;10.00;99.90;;;;;;4996514;28;20195;-48
2023/12/28 16:14:36;;;;;;;5.87;1.70;;;10.00;99.90;;;;;;5013604;28;20217;-46
2023/12/28 16:17:02;;;;;;;6.53;1.77;;;10.00;99.90;;;;;;4995831;28;20239;-47
2023/12/28 16:19:28;;;;;;;14.57;2.20;;;10.00;99.90;;;;;;5013634;28;20189;-46
2023/12/28 16:25:16;;;;;;;10.53;1.60;;;9.90;99.90;;;;;;5013475;28;20223;-48
2023/12/28 16:27:41;;;;;;;7.00;1.53;;;9.90;99.90;;;;;;5013564;28;20181;-46
2023/12/28 16:30:08;;;;;;;4.17;1.37;;;9.90;99.90;;;;;;5013357;28;20205;-47
2023/12/28 16:32:34;;;;;;;2.90;1.40;;;9.80;99.90;;;;;;5013524;28;20176;-47
2023/12/28 16:34:59;;;;;;;3.63;0.87;;;9.80;99.90;;;;;;4995737;28;20647;-46
2023/12/28 16:37:28;;;;;;;8.23;1.57;;;9.80;99.90;;;;;;5013528;28;20189;-47
2023/12/28 16:39:58;;;;;;;7.00;1.33;;;9.80;99.90;;;;;;4981102;28;20674;-47